sensor_id;sensor_type;location;lat;lon;timestamp;temperature;humidity
57264;DHT22;43113;53.124;6.092;2022-08-19T00:01:49;14.70;99.90
57264;DHT22;43113;53.124;6.092;2022-08-19T00:04:17;14.70;99.90
57264;DHT22;43113;53.124;6.092;2022-08-19T00:06:44;14.60;99.90
57264;DHT22;43113;53.124;6.092;2022-08-19T00:09:12;14.60;99.90
57264;DHT22;43113;53.124;6.092;2022-08-19T00:11:38;14.50;99.90
57264;DHT22;43113;53.124;6.092;2022-08-19T00:14:06;14.50;99.90
57264;DHT22;43113;53.124;6.092;2022-08-19T00:16:32;14.50;99.90
57264;DHT22;43113;53.124;6.092;2022-08-19T00:18:58;14.40;99.90
57264;DHT22;43113;53.124;6.092;2022-08-19T00:21:25;14.40;99.90
57264;DHT22;43113;53.124;6.092;2022-08-19T00:23:52;14.40;99.90
57264;DHT22;43113;53.124;6.092;2022-08-19T00:26:18;14.30;99.90
57264;DHT22;43113;53.124;6.092;2022-08-19T00:28:44;14.30;99.90
57264;DHT22;43113;53.124;6.092;2022-08-19T00:31:10;14.30;99.90
57264;DHT22;43113;53.124;6.092;2022-08-19T00:33:36;14.20;99.90
57264;DHT22;43113;53.124;6.092;2022-08-19T00:36:04;14.20;99.90
57264;DHT22;43113;53.124;6.092;2022-08-19T00:38:30;14.10;99.90
57264;DHT22;43113;53.124;6.092;2022-08-19T00:40:57;14.10;99.90
57264;DHT22;43113;53.124;6.092;2022-08-19T00:43:25;14.10;99.90
57264;DHT22;43113;53.124;6.092;2022-08-19T00:45:51;14.10;99.90
57264;DHT22;43113;53.124;6.092;2022-08-19T00:48:18;14.10;99.90
57264;DHT22;43113;53.124;6.092;2022-08-19T00:50:44;14.10;99.90
57264;DHT22;43113;53.124;6.092;2022-08-19T00:53:12;14.00;99.90
57264;DHT22;43113;53.124;6.092;2022-08-19T00:55:42;14.00;99.90
57264;DHT22;43113;53.124;6.092;2022-08-19T00:58:12;14.00;99.90
57264;DHT22;43113;53.124;6.092;2022-08-19T01:00:39;14.00;99.90
57264;DHT22;43113;53.124;6.092;2022-08-19T01:03:08;14.00;99.90
57264;DHT22;43113;53.124;6.092;2022-08-19T01:05:35;14.00;99.90
57264;DHT22;43113;53.124;6.092;2022-08-19T01:08:02;14.00;99.90
57264;DHT22;43113;53.124;6.092;2022-08-19T01:10:32;14.00;99.90
57264;DHT22;43113;53.124;6.092;2022-08-19T01:12:59;14.00;99.90
57264;DHT22;43113;53.124;6.092;2022-08-19T01:15:35;13.90;99.90
57264;DHT22;43113;53.124;6.092;2022-08-19T01:18:10;13.90;99.90
57264;DHT22;43113;53.124;6.092;2022-08-19T01:20:36;13.90;99.90
57264;DHT22;43113;53.124;6.092;2022-08-19T01:23:03;13.80;99.90
57264;DHT22;43113;53.124;6.092;2022-08-19T01:25:38;13.80;99.90
57264;DHT22;43113;53.124;6.092;2022-08-19T01:28:05;13.80;99.90
57264;DHT22;43113;53.124;6.092;2022-08-19T01:30:33;13.70;99.90
57264;DHT22;43113;53.124;6.092;2022-08-19T01:33:00;13.70;99.90
57264;DHT22;43113;53.124;6.092;2022-08-19T01:35:29;13.70;99.90
57264;DHT22;43113;53.124;6.092;2022-08-19T01:38:05;13.60;99.90
57264;DHT22;43113;53.124;6.092;2022-08-19T01:40:35;13.60;99.90
57264;DHT22;43113;53.124;6.092;2022-08-19T01:43:02;13.60;99.90
57264;DHT22;43113;53.124;6.092;2022-08-19T01:45:30;13.60;99.90
57264;DHT22;43113;53.124;6.092;2022-08-19T01:47:56;13.60;99.90
57264;DHT22;43113;53.124;6.092;2022-08-19T01:50:22;13.60;99.90
57264;DHT22;43113;53.124;6.092;2022-08-19T01:52:48;13.70;99.90
57264;DHT22;43113;53.124;6.092;2022-08-19T01:55:18;13.60;99.90
57264;DHT22;43113;53.124;6.092;2022-08-19T01:57:48;13.60;99.90
57264;DHT22;43113;53.124;6.092;2022-08-19T02:00:16;13.70;99.90
57264;DHT22;43113;53.124;6.092;2022-08-19T02:02:43;13.60;99.90
57264;DHT22;43113;53.124;6.092;2022-08-19T02:05:09;13.60;99.90
57264;DHT22;43113;53.124;6.092;2022-08-19T02:07:36;13.60;99.90
57264;DHT22;43113;53.124;6.092;2022-08-19T02:10:08;13.60;99.90
57264;DHT22;43113;53.124;6.092;2022-08-19T02:12:34;13.60;99.90
57264;DHT22;43113;53.124;6.092;2022-08-19T02:15:00;13.60;99.90
57264;DHT22;43113;53.124;6.092;2022-08-19T02:17:27;13.70;99.90
57264;DHT22;43113;53.124;6.092;2022-08-19T02:19:57;13.70;99.90
57264;DHT22;43113;53.124;6.092;2022-08-19T02:22:23;13.60;99.90
57264;DHT22;43113;53.124;6.092;2022-08-19T02:24:54;13.70;99.90
57264;DHT22;43113;53.124;6.092;2022-08-19T02:27:20;13.70;99.90
57264;DHT22;43113;53.124;6.092;2022-08-19T02:29:50;13.70;99.90
57264;DHT22;43113;53.124;6.092;2022-08-19T02:32:17;13.70;99.90
57264;DHT22;43113;53.124;6.092;2022-08-19T02:34:45;13.80;99.90
57264;DHT22;43113;53.124;6.092;2022-08-19T02:37:11;13.80;99.90
57264;DHT22;43113;53.124;6.092;2022-08-19T02:39:57;13.90;99.90
57264;DHT22;43113;53.124;6.092;2022-08-19T02:42:23;13.80;99.90
57264;DHT22;43113;53.124;6.092;2022-08-19T02:44:49;13.90;99.90
57264;DHT22;43113;53.124;6.092;2022-08-19T02:47:15;13.90;99.90
57264;DHT22;43113;53.124;6.092;2022-08-19T02:49:41;14.00;99.90
57264;DHT22;43113;53.124;6.092;2022-08-19T02:52:07;14.00;99.90
57264;DHT22;43113;53.124;6.092;2022-08-19T02:54:32;14.00;99.90
57264;DHT22;43113;53.124;6.092;2022-08-19T02:56:58;14.10;99.90
57264;DHT22;43113;53.124;6.092;2022-08-19T02:59:24;14.10;99.90
57264;DHT22;43113;53.124;6.092;2022-08-19T03:01:51;14.00;99.90
57264;DHT22;43113;53.124;6.092;2022-08-19T03:04:18;14.00;99.90
57264;DHT22;43113;53.124;6.092;2022-08-19T03:06:46;14.00;99.90
57264;DHT22;43113;53.124;6.092;2022-08-19T03:09:12;14.00;99.90
57264;DHT22;43113;53.124;6.092;2022-08-19T03:11:39;13.90;99.90
57264;DHT22;43113;53.124;6.092;2022-08-19T03:14:07;13.90;99.90
57264;DHT22;43113;53.124;6.092;2022-08-19T03:16:36;13.90;99.90
57264;DHT22;43113;53.124;6.092;2022-08-19T03:19:04;13.90;99.90
57264;DHT22;43113;53.124;6.092;2022-08-19T03:21:33;13.90;99.90
57264;DHT22;43113;53.124;6.092;2022-08-19T03:24:02;14.00;99.90
57264;DHT22;43113;53.124;6.092;2022-08-19T03:26:29;14.00;99.90
57264;DHT22;43113;53.124;6.092;2022-08-19T03:28:55;14.00;99.90
57264;DHT22;43113;53.124;6.092;2022-08-19T03:31:22;14.00;99.90
57264;DHT22;43113;53.124;6.092;2022-08-19T03:33:49;14.00;99.90
57264;DHT22;43113;53.124;6.092;2022-08-19T03:36:21;13.90;99.90
57264;DHT22;43113;53.124;6.092;2022-08-19T03:38:51;14.00;99.90
57264;DHT22;43113;53.124;6.092;2022-08-19T03:41:21;13.90;99.90
57264;DHT22;43113;53.124;6.092;2022-08-19T03:43:47;13.90;99.90
57264;DHT22;43113;53.124;6.092;2022-08-19T03:46:16;13.90;99.90
57264;DHT22;43113;53.124;6.092;2022-08-19T03:48:43;13.90;99.90
57264;DHT22;43113;53.124;6.092;2022-08-19T03:53:51;13.90;99.90
57264;DHT22;43113;53.124;6.092;2022-08-19T03:56:17;13.90;99.90
57264;DHT22;43113;53.124;6.092;2022-08-19T03:58:44;13.90;99.90
57264;DHT22;43113;53.124;6.092;2022-08-19T04:01:14;13.90;99.90
57264;DHT22;43113;53.124;6.092;2022-08-19T04:03:40;14.00;99.90
57264;DHT22;43113;53.124;6.092;2022-08-19T04:06:11;14.00;99.90
57264;DHT22;43113;53.124;6.092;2022-08-19T04:08:42;14.00;99.90
57264;DHT22;43113;53.124;6.092;2022-08-19T04:11:10;14.00;99.90
57264;DHT22;43113;53.124;6.092;2022-08-19T04:13:37;14.00;99.90
57264;DHT22;43113;53.124;6.092;2022-08-19T04:16:04;14.00;99.90
57264;DHT22;43113;53.124;6.092;2022-08-19T04:18:31;14.00;99.90
57264;DHT22;43113;53.124;6.092;2022-08-19T04:20:58;14.00;99.90
57264;DHT22;43113;53.124;6.092;2022-08-19T04:23:23;14.00;99.90
57264;DHT22;43113;53.124;6.092;2022-08-19T04:25:49;14.00;99.90
57264;DHT22;43113;53.124;6.092;2022-08-19T04:28:15;14.00;99.90
57264;DHT22;43113;53.124;6.092;2022-08-19T04:30:46;14.00;99.90
57264;DHT22;43113;53.124;6.092;2022-08-19T04:33:15;14.10;99.90
57264;DHT22;43113;53.124;6.092;2022-08-19T04:35:43;14.00;99.90
57264;DHT22;43113;53.124;6.092;2022-08-19T04:38:10;14.00;99.90
57264;DHT22;43113;53.124;6.092;2022-08-19T04:40:45;14.00;99.90
57264;DHT22;43113;53.124;6.092;2022-08-19T04:43:31;14.00;99.90
57264;DHT22;43113;53.124;6.092;2022-08-19T04:45:57;14.00;99.90
57264;DHT22;43113;53.124;6.092;2022-08-19T04:48:23;14.00;99.90
57264;DHT22;43113;53.124;6.092;2022-08-19T04:50:53;14.10;99.90
57264;DHT22;43113;53.124;6.092;2022-08-19T04:53:33;14.10;99.90
57264;DHT22;43113;53.124;6.092;2022-08-19T04:56:03;14.10;99.90
57264;DHT22;43113;53.124;6.092;2022-08-19T04:58:29;14.20;99.90
57264;DHT22;43113;53.124;6.092;2022-08-19T05:00:55;14.20;99.90
57264;DHT22;43113;53.124;6.092;2022-08-19T05:03:21;14.30;99.90
57264;DHT22;43113;53.124;6.092;2022-08-19T05:05:48;14.40;99.90
57264;DHT22;43113;53.124;6.092;2022-08-19T05:08:17;14.40;99.90
57264;DHT22;43113;53.124;6.092;2022-08-19T05:10:47;14.50;99.90
57264;DHT22;43113;53.124;6.092;2022-08-19T05:13:14;14.60;99.90
57264;DHT22;43113;53.124;6.092;2022-08-19T05:15:40;14.70;99.90
57264;DHT22;43113;53.124;6.092;2022-08-19T05:18:06;14.80;99.90
57264;DHT22;43113;53.124;6.092;2022-08-19T05:20:50;14.90;99.90
57264;DHT22;43113;53.124;6.092;2022-08-19T05:23:34;15.10;99.90
57264;DHT22;43113;53.124;6.092;2022-08-19T05:26:00;15.20;99.90
57264;DHT22;43113;53.124;6.092;2022-08-19T05:28:25;15.30;99.90
57264;DHT22;43113;53.124;6.092;2022-08-19T05:30:51;15.30;99.90
57264;DHT22;43113;53.124;6.092;2022-08-19T05:33:18;15.40;99.90
57264;DHT22;43113;53.124;6.092;2022-08-19T05:35:44;15.50;99.90
57264;DHT22;43113;53.124;6.092;2022-08-19T05:38:10;15.50;99.90
57264;DHT22;43113;53.124;6.092;2022-08-19T05:40:37;15.60;99.90
57264;DHT22;43113;53.124;6.092;2022-08-19T05:43:05;15.70;99.90
57264;DHT22;43113;53.124;6.092;2022-08-19T05:45:31;15.70;99.90
57264;DHT22;43113;53.124;6.092;2022-08-19T05:47:57;15.90;99.90
57264;DHT22;43113;53.124;6.092;2022-08-19T05:50:24;16.00;99.90
57264;DHT22;43113;53.124;6.092;2022-08-19T05:52:52;16.00;99.90
57264;DHT22;43113;53.124;6.092;2022-08-19T05:55:18;16.10;99.90
57264;DHT22;43113;53.124;6.092;2022-08-19T05:57:45;16.20;99.90
57264;DHT22;43113;53.124;6.092;2022-08-19T06:00:12;16.30;99.90
57264;DHT22;43113;53.124;6.092;2022-08-19T06:02:39;16.30;99.90
57264;DHT22;43113;53.124;6.092;2022-08-19T06:05:06;16.40;99.90
57264;DHT22;43113;53.124;6.092;2022-08-19T06:07:39;16.60;99.90
57264;DHT22;43113;53.124;6.092;2022-08-19T06:10:07;16.70;99.90
57264;DHT22;43113;53.124;6.092;2022-08-19T06:12:34;16.80;99.90
57264;DHT22;43113;53.124;6.092;2022-08-19T06:15:11;17.30;99.90
57264;DHT22;43113;53.124;6.092;2022-08-19T06:17:37;17.90;99.90
57264;DHT22;43113;53.124;6.092;2022-08-19T06:20:05;18.10;99.90
57264;DHT22;43113;53.124;6.092;2022-08-19T06:22:31;18.30;99.90
57264;DHT22;43113;53.124;6.092;2022-08-19T06:24:57;18.90;99.90
57264;DHT22;43113;53.124;6.092;2022-08-19T06:27:22;19.60;99.90
57264;DHT22;43113;53.124;6.092;2022-08-19T06:29:49;19.90;99.90
57264;DHT22;43113;53.124;6.092;2022-08-19T06:32:16;20.80;99.90
57264;DHT22;43113;53.124;6.092;2022-08-19T06:34:42;22.30;99.90
57264;DHT22;43113;53.124;6.092;2022-08-19T06:37:08;23.50;99.90
57264;DHT22;43113;53.124;6.092;2022-08-19T06:39:39;24.70;99.90
57264;DHT22;43113;53.124;6.092;2022-08-19T06:42:06;25.70;99.90
57264;DHT22;43113;53.124;6.092;2022-08-19T06:44:35;26.50;99.90
57264;DHT22;43113;53.124;6.092;2022-08-19T06:47:07;27.30;99.90
57264;DHT22;43113;53.124;6.092;2022-08-19T06:49:33;28.00;99.90
57264;DHT22;43113;53.124;6.092;2022-08-19T06:52:00;28.50;99.90
57264;DHT22;43113;53.124;6.092;2022-08-19T06:54:26;28.80;97.10
57264;DHT22;43113;53.124;6.092;2022-08-19T06:56:54;29.40;98.60
57264;DHT22;43113;53.124;6.092;2022-08-19T06:59:21;29.90;96.50
57264;DHT22;43113;53.124;6.092;2022-08-19T07:01:52;30.20;95.80
57264;DHT22;43113;53.124;6.092;2022-08-19T07:04:27;30.50;94.60
57264;DHT22;43113;53.124;6.092;2022-08-19T07:07:02;30.80;95.40
57264;DHT22;43113;53.124;6.092;2022-08-19T07:09:29;30.90;93.70
57264;DHT22;43113;53.124;6.092;2022-08-19T07:11:55;31.30;94.00
57264;DHT22;43113;53.124;6.092;2022-08-19T07:14:24;31.30;93.40
57264;DHT22;43113;53.124;6.092;2022-08-19T07:16:52;31.40;92.90
57264;DHT22;43113;53.124;6.092;2022-08-19T07:19:21;31.90;91.80
57264;DHT22;43113;53.124;6.092;2022-08-19T07:21:49;32.10;92.20
57264;DHT22;43113;53.124;6.092;2022-08-19T07:24:18;32.40;91.40
57264;DHT22;43113;53.124;6.092;2022-08-19T07:26:45;32.50;91.60
57264;DHT22;43113;53.124;6.092;2022-08-19T07:29:12;32.40;91.10
57264;DHT22;43113;53.124;6.092;2022-08-19T07:31:38;32.40;91.70
57264;DHT22;43113;53.124;6.092;2022-08-19T07:34:06;32.60;91.00
57264;DHT22;43113;53.124;6.092;2022-08-19T07:36:37;32.90;90.90
57264;DHT22;43113;53.124;6.092;2022-08-19T07:39:11;32.80;90.10
57264;DHT22;43113;53.124;6.092;2022-08-19T07:41:38;32.80;90.50
57264;DHT22;43113;53.124;6.092;2022-08-19T07:44:06;33.20;89.70
57264;DHT22;43113;53.124;6.092;2022-08-19T07:46:38;33.50;87.80
57264;DHT22;43113;53.124;6.092;2022-08-19T07:49:06;33.60;89.40
57264;DHT22;43113;53.124;6.092;2022-08-19T07:51:32;34.00;89.50
57264;DHT22;43113;53.124;6.092;2022-08-19T07:53:58;33.90;90.10
57264;DHT22;43113;53.124;6.092;2022-08-19T07:56:23;34.20;87.80
57264;DHT22;43113;53.124;6.092;2022-08-19T07:58:51;34.20;88.70
57264;DHT22;43113;53.124;6.092;2022-08-19T08:01:20;34.50;87.20
57264;DHT22;43113;53.124;6.092;2022-08-19T08:03:47;34.50;89.30
57264;DHT22;43113;53.124;6.092;2022-08-19T08:06:32;34.70;86.40
57264;DHT22;43113;53.124;6.092;2022-08-19T08:09:19;34.90;86.50
57264;DHT22;43113;53.124;6.092;2022-08-19T08:14:19;34.40;86.10
57264;DHT22;43113;53.124;6.092;2022-08-19T08:16:45;34.80;85.90
57264;DHT22;43113;53.124;6.092;2022-08-19T08:19:12;35.00;85.30
57264;DHT22;43113;53.124;6.092;2022-08-19T08:21:40;35.10;84.10
57264;DHT22;43113;53.124;6.092;2022-08-19T08:24:06;35.20;85.50
57264;DHT22;43113;53.124;6.092;2022-08-19T08:26:32;35.20;85.20
57264;DHT22;43113;53.124;6.092;2022-08-19T08:28:58;34.90;83.20
57264;DHT22;43113;53.124;6.092;2022-08-19T08:31:24;34.50;83.80
57264;DHT22;43113;53.124;6.092;2022-08-19T08:33:49;34.50;83.20
57264;DHT22;43113;53.124;6.092;2022-08-19T08:36:16;34.80;85.00
57264;DHT22;43113;53.124;6.092;2022-08-19T08:38:44;35.10;82.70
57264;DHT22;43113;53.124;6.092;2022-08-19T08:47:04;35.20;83.80
57264;DHT22;43113;53.124;6.092;2022-08-19T08:49:42;35.20;83.80
57264;DHT22;43113;53.124;6.092;2022-08-19T08:52:36;34.80;84.30
57264;DHT22;43113;53.124;6.092;2022-08-19T08:55:10;34.70;83.60
57264;DHT22;43113;53.124;6.092;2022-08-19T09:00:46;35.40;83.60
57264;DHT22;43113;53.124;6.092;2022-08-19T09:03:22;35.40;82.90
57264;DHT22;43113;53.124;6.092;2022-08-19T09:06:04;36.00;81.60
57264;DHT22;43113;53.124;6.092;2022-08-19T09:14:20;35.60;80.50
57264;DHT22;43113;53.124;6.092;2022-08-19T09:16:49;35.60;82.40
57264;DHT22;43113;53.124;6.092;2022-08-19T09:19:15;35.60;80.50
57264;DHT22;43113;53.124;6.092;2022-08-19T09:21:43;35.00;82.10
57264;DHT22;43113;53.124;6.092;2022-08-19T09:24:09;34.70;82.30
57264;DHT22;43113;53.124;6.092;2022-08-19T09:26:34;35.20;85.20
57264;DHT22;43113;53.124;6.092;2022-08-19T09:29:00;36.20;80.70
57264;DHT22;43113;53.124;6.092;2022-08-19T09:31:28;35.80;81.00
57264;DHT22;43113;53.124;6.092;2022-08-19T09:33:55;35.70;81.40
57264;DHT22;43113;53.124;6.092;2022-08-19T09:36:26;36.10;81.10
57264;DHT22;43113;53.124;6.092;2022-08-19T09:38:52;36.00;81.20
57264;DHT22;43113;53.124;6.092;2022-08-19T09:41:21;36.00;80.50
57264;DHT22;43113;53.124;6.092;2022-08-19T09:43:49;36.00;82.60
57264;DHT22;43113;53.124;6.092;2022-08-19T09:46:18;36.40;80.20
57264;DHT22;43113;53.124;6.092;2022-08-19T09:48:47;36.90;78.50
57264;DHT22;43113;53.124;6.092;2022-08-19T09:51:16;36.40;76.20
57264;DHT22;43113;53.124;6.092;2022-08-19T09:53:46;35.20;77.60
57264;DHT22;43113;53.124;6.092;2022-08-19T09:56:13;33.70;79.90
57264;DHT22;43113;53.124;6.092;2022-08-19T09:58:39;33.10;83.00
57264;DHT22;43113;53.124;6.092;2022-08-19T10:01:06;33.40;81.80
57264;DHT22;43113;53.124;6.092;2022-08-19T10:03:33;33.80;81.00
57264;DHT22;43113;53.124;6.092;2022-08-19T10:06:02;34.60;82.40
57264;DHT22;43113;53.124;6.092;2022-08-19T10:08:31;35.40;79.90
57264;DHT22;43113;53.124;6.092;2022-08-19T10:10:59;35.50;77.60
57264;DHT22;43113;53.124;6.092;2022-08-19T10:13:27;35.90;80.00
57264;DHT22;43113;53.124;6.092;2022-08-19T10:15:56;36.20;78.90
57264;DHT22;43113;53.124;6.092;2022-08-19T10:18:23;36.60;77.40
57264;DHT22;43113;53.124;6.092;2022-08-19T10:20:51;37.00;78.90
57264;DHT22;43113;53.124;6.092;2022-08-19T10:23:19;37.20;79.30
57264;DHT22;43113;53.124;6.092;2022-08-19T10:25:45;37.30;76.60
57264;DHT22;43113;53.124;6.092;2022-08-19T10:28:11;37.40;77.40
57264;DHT22;43113;53.124;6.092;2022-08-19T10:30:40;37.10;78.00
57264;DHT22;43113;53.124;6.092;2022-08-19T10:33:06;36.80;77.60
57264;DHT22;43113;53.124;6.092;2022-08-19T10:35:32;35.70;77.60
57264;DHT22;43113;53.124;6.092;2022-08-19T10:37:58;35.30;79.30
57264;DHT22;43113;53.124;6.092;2022-08-19T10:40:26;34.90;79.50
57264;DHT22;43113;53.124;6.092;2022-08-19T10:42:53;35.00;80.10
57264;DHT22;43113;53.124;6.092;2022-08-19T10:45:19;35.80;78.70
57264;DHT22;43113;53.124;6.092;2022-08-19T10:47:48;36.30;78.80
57264;DHT22;43113;53.124;6.092;2022-08-19T10:50:14;36.60;75.20
57264;DHT22;43113;53.124;6.092;2022-08-19T10:53:04;36.70;77.40
57264;DHT22;43113;53.124;6.092;2022-08-19T10:55:30;36.80;77.50
57264;DHT22;43113;53.124;6.092;2022-08-19T10:58:17;37.30;76.60
57264;DHT22;43113;53.124;6.092;2022-08-19T11:00:58;37.10;76.50
57264;DHT22;43113;53.124;6.092;2022-08-19T11:03:24;37.50;75.50
57264;DHT22;43113;53.124;6.092;2022-08-19T11:06:01;37.80;76.50
57264;DHT22;43113;53.124;6.092;2022-08-19T11:08:27;37.70;75.60
57264;DHT22;43113;53.124;6.092;2022-08-19T11:10:54;37.30;74.80
57264;DHT22;43113;53.124;6.092;2022-08-19T11:13:23;36.00;76.50
57264;DHT22;43113;53.124;6.092;2022-08-19T11:16:00;34.50;78.80
57264;DHT22;43113;53.124;6.092;2022-08-19T11:18:27;33.40;80.50
57264;DHT22;43113;53.124;6.092;2022-08-19T11:20:53;32.40;83.00
57264;DHT22;43113;53.124;6.092;2022-08-19T11:23:19;31.80;83.90
57264;DHT22;43113;53.124;6.092;2022-08-19T11:25:45;31.30;84.60
57264;DHT22;43113;53.124;6.092;2022-08-19T11:28:12;30.70;85.50
57264;DHT22;43113;53.124;6.092;2022-08-19T11:30:39;30.30;86.20
57264;DHT22;43113;53.124;6.092;2022-08-19T11:33:04;29.70;87.20
57264;DHT22;43113;53.124;6.092;2022-08-19T11:35:30;29.30;87.80
57264;DHT22;43113;53.124;6.092;2022-08-19T11:37:58;29.20;89.00
57264;DHT22;43113;53.124;6.092;2022-08-19T11:40:27;29.00;89.00
57264;DHT22;43113;53.124;6.092;2022-08-19T11:42:54;28.80;89.60
57264;DHT22;43113;53.124;6.092;2022-08-19T11:45:25;28.60;90.20
57264;DHT22;43113;53.124;6.092;2022-08-19T11:47:55;28.40;90.70
57264;DHT22;43113;53.124;6.092;2022-08-19T11:50:21;28.10;91.80
57264;DHT22;43113;53.124;6.092;2022-08-19T11:52:48;27.80;92.40
57264;DHT22;43113;53.124;6.092;2022-08-19T11:55:15;27.90;93.20
57264;DHT22;43113;53.124;6.092;2022-08-19T11:57:41;28.20;93.10
57264;DHT22;43113;53.124;6.092;2022-08-19T12:00:09;28.80;92.90
57264;DHT22;43113;53.124;6.092;2022-08-19T12:02:37;29.50;92.50
57264;DHT22;43113;53.124;6.092;2022-08-19T12:05:03;30.30;91.40
57264;DHT22;43113;53.124;6.092;2022-08-19T12:07:29;30.80;90.50
57264;DHT22;43113;53.124;6.092;2022-08-19T12:09:59;31.50;90.80
57264;DHT22;43113;53.124;6.092;2022-08-19T12:12:26;31.70;90.00
57264;DHT22;43113;53.124;6.092;2022-08-19T12:14:52;31.40;89.10
57264;DHT22;43113;53.124;6.092;2022-08-19T12:17:23;31.40;90.40
57264;DHT22;43113;53.124;6.092;2022-08-19T12:19:49;31.60;89.50
57264;DHT22;43113;53.124;6.092;2022-08-19T12:22:15;30.90;86.50
57264;DHT22;43113;53.124;6.092;2022-08-19T12:24:40;30.10;88.50
57264;DHT22;43113;53.124;6.092;2022-08-19T12:27:06;29.40;90.20
57264;DHT22;43113;53.124;6.092;2022-08-19T12:29:32;28.50;91.70
57264;DHT22;43113;53.124;6.092;2022-08-19T12:31:59;28.00;92.10
57264;DHT22;43113;53.124;6.092;2022-08-19T12:34:28;27.70;93.10
57264;DHT22;43113;53.124;6.092;2022-08-19T12:36:57;27.60;93.30
57264;DHT22;43113;53.124;6.092;2022-08-19T12:39:23;27.60;94.00
57264;DHT22;43113;53.124;6.092;2022-08-19T12:41:49;27.70;94.10
57264;DHT22;43113;53.124;6.092;2022-08-19T12:44:15;27.80;94.10
57264;DHT22;43113;53.124;6.092;2022-08-19T12:46:42;28.00;93.90
57264;DHT22;43113;53.124;6.092;2022-08-19T12:49:07;28.00;94.30
57264;DHT22;43113;53.124;6.092;2022-08-19T12:51:33;28.10;93.60
57264;DHT22;43113;53.124;6.092;2022-08-19T12:53:59;27.90;93.70
57264;DHT22;43113;53.124;6.092;2022-08-19T12:56:25;27.70;94.20
57264;DHT22;43113;53.124;6.092;2022-08-19T12:58:51;27.40;95.20
57264;DHT22;43113;53.124;6.092;2022-08-19T13:01:18;27.30;95.00
57264;DHT22;43113;53.124;6.092;2022-08-19T13:03:47;27.20;94.30
57264;DHT22;43113;53.124;6.092;2022-08-19T13:06:13;26.90;94.30
57264;DHT22;43113;53.124;6.092;2022-08-19T13:08:39;26.80;94.10
57264;DHT22;43113;53.124;6.092;2022-08-19T13:11:16;26.70;94.70
57264;DHT22;43113;53.124;6.092;2022-08-19T13:13:45;26.60;94.90
57264;DHT22;43113;53.124;6.092;2022-08-19T13:16:12;26.60;95.00
57264;DHT22;43113;53.124;6.092;2022-08-19T13:18:39;26.50;95.70
57264;DHT22;43113;53.124;6.092;2022-08-19T13:21:08;26.50;96.70
57264;DHT22;43113;53.124;6.092;2022-08-19T13:23:35;26.40;96.60
57264;DHT22;43113;53.124;6.092;2022-08-19T13:26:04;26.30;97.20
57264;DHT22;43113;53.124;6.092;2022-08-19T13:28:30;26.40;97.60
57264;DHT22;43113;53.124;6.092;2022-08-19T13:31:22;26.40;97.30
57264;DHT22;43113;53.124;6.092;2022-08-19T13:34:07;26.50;97.40
57264;DHT22;43113;53.124;6.092;2022-08-19T13:36:34;26.40;98.30
57264;DHT22;43113;53.124;6.092;2022-08-19T13:38:59;26.30;98.80
57264;DHT22;43113;53.124;6.092;2022-08-19T13:41:26;26.40;99.00
57264;DHT22;43113;53.124;6.092;2022-08-19T13:43:53;26.10;99.60
57264;DHT22;43113;53.124;6.092;2022-08-19T13:46:19;25.80;99.90
57264;DHT22;43113;53.124;6.092;2022-08-19T13:48:46;25.70;99.90
57264;DHT22;43113;53.124;6.092;2022-08-19T13:51:14;25.50;99.90
57264;DHT22;43113;53.124;6.092;2022-08-19T13:53:41;25.40;99.90
57264;DHT22;43113;53.124;6.092;2022-08-19T13:56:13;25.20;99.90
57264;DHT22;43113;53.124;6.092;2022-08-19T13:58:42;25.10;99.90
57264;DHT22;43113;53.124;6.092;2022-08-19T14:01:24;25.20;99.90
57264;DHT22;43113;53.124;6.092;2022-08-19T14:03:51;25.20;99.90
57264;DHT22;43113;53.124;6.092;2022-08-19T14:06:19;25.20;99.90
57264;DHT22;43113;53.124;6.092;2022-08-19T14:08:47;25.20;99.90
57264;DHT22;43113;53.124;6.092;2022-08-19T14:11:31;25.30;99.90
57264;DHT22;43113;53.124;6.092;2022-08-19T14:14:06;25.50;99.90
57264;DHT22;43113;53.124;6.092;2022-08-19T14:16:50;25.60;99.90
57264;DHT22;43113;53.124;6.092;2022-08-19T14:19:23;25.70;99.90
57264;DHT22;43113;53.124;6.092;2022-08-19T14:22:02;25.70;99.90
57264;DHT22;43113;53.124;6.092;2022-08-19T14:24:28;25.80;99.90
57264;DHT22;43113;53.124;6.092;2022-08-19T14:27:00;25.90;99.90
57264;DHT22;43113;53.124;6.092;2022-08-19T14:29:28;25.90;99.90
57264;DHT22;43113;53.124;6.092;2022-08-19T14:31:55;25.90;99.90
57264;DHT22;43113;53.124;6.092;2022-08-19T14:34:25;26.00;99.90
57264;DHT22;43113;53.124;6.092;2022-08-19T14:36:52;26.00;99.90
57264;DHT22;43113;53.124;6.092;2022-08-19T14:39:18;26.10;99.90
57264;DHT22;43113;53.124;6.092;2022-08-19T14:41:44;26.20;99.90
57264;DHT22;43113;53.124;6.092;2022-08-19T14:44:11;26.20;99.90
57264;DHT22;43113;53.124;6.092;2022-08-19T14:46:41;26.30;99.90
57264;DHT22;43113;53.124;6.092;2022-08-19T14:49:07;26.30;99.90
57264;DHT22;43113;53.124;6.092;2022-08-19T14:51:33;26.50;99.90
57264;DHT22;43113;53.124;6.092;2022-08-19T14:53:59;26.40;99.90
57264;DHT22;43113;53.124;6.092;2022-08-19T14:56:28;26.50;99.90
57264;DHT22;43113;53.124;6.092;2022-08-19T14:58:54;26.60;99.90
57264;DHT22;43113;53.124;6.092;2022-08-19T15:01:21;26.60;99.90
57264;DHT22;43113;53.124;6.092;2022-08-19T15:03:49;26.80;99.90
57264;DHT22;43113;53.124;6.092;2022-08-19T15:06:18;26.90;99.90
57264;DHT22;43113;53.124;6.092;2022-08-19T15:08:43;27.00;99.90
57264;DHT22;43113;53.124;6.092;2022-08-19T15:11:16;26.90;99.90
57264;DHT22;43113;53.124;6.092;2022-08-19T15:13:42;26.70;99.90
57264;DHT22;43113;53.124;6.092;2022-08-19T15:16:10;26.50;99.90
57264;DHT22;43113;53.124;6.092;2022-08-19T15:18:35;26.50;99.90
57264;DHT22;43113;53.124;6.092;2022-08-19T15:21:05;26.50;99.90
57264;DHT22;43113;53.124;6.092;2022-08-19T15:23:32;26.70;99.90
57264;DHT22;43113;53.124;6.092;2022-08-19T15:25:59;26.80;99.90
57264;DHT22;43113;53.124;6.092;2022-08-19T15:28:25;27.00;99.90
57264;DHT22;43113;53.124;6.092;2022-08-19T15:30:51;27.00;99.90
57264;DHT22;43113;53.124;6.092;2022-08-19T15:33:20;27.00;99.90
57264;DHT22;43113;53.124;6.092;2022-08-19T15:35:47;27.00;99.90
57264;DHT22;43113;53.124;6.092;2022-08-19T15:38:14;27.10;99.90
57264;DHT22;43113;53.124;6.092;2022-08-19T15:40:44;26.90;99.90
57264;DHT22;43113;53.124;6.092;2022-08-19T15:43:10;26.80;99.90
57264;DHT22;43113;53.124;6.092;2022-08-19T15:45:36;26.70;99.90
57264;DHT22;43113;53.124;6.092;2022-08-19T15:48:03;26.50;99.90
57264;DHT22;43113;53.124;6.092;2022-08-19T15:50:30;26.60;99.90
57264;DHT22;43113;53.124;6.092;2022-08-19T15:53:07;26.80;99.90
57264;DHT22;43113;53.124;6.092;2022-08-19T15:55:36;26.90;99.60
57264;DHT22;43113;53.124;6.092;2022-08-19T15:58:09;26.90;99.30